LOWWLOWK

Guest
Details From LOWW - Wien Schwechat
To LOWK - Klagenfurt Woerthersee
Flight Number -
Tags Generated
Created
Modified
Stats Distance 128 nm / 236 km
Max Altitude 0 ft / 0 m
Waypoints 2
Social Downloads 1
Likes 0
Share VATSIM

Download

Looking for another format? Having issues loading an existing format? Contact us
Advertisement - Login to hide

Notes

Generated

Route

LOWW LOWK

ID Type Via Altitude Latitude Longitude Leg Dist Tot Dist Heading (true) Name
O LOWW APT - 0 ft / 0 m 48.11978˚ 16.57818˚ - 0 nm - -
O LOWK APT - 0 ft / 0 m 46.64412˚ 14.32017˚ 127 nm 127 nm 227° / 225° -

Altitude Profile

Advertisement - Login to hide

LOWW

Details ICAO LOWW (VIE)
Name Wien Schwechat
Region Austria
Timezone Europe/Vienna (UTC+1.0)
Stats Elevation 600 ft / 183 m (AMSL)
Location 48.110068° 16.569637°
Runways 2
Magnetic Variation 4.255° E

METAR

LOWW 110020Z 15015KT CAVOK 04/M01 Q0995 NOSIG

Decode

TAF

TAF LOWW 102315Z 1100/1206 18020KT CAVOK TX12/1112Z TN04/1103Z BECMG 1110/1112 17020G30KT BECMG 1112/1115 17025G35KT TEMPO 1115/1204 17032G45KT

Decode

Departure Runways

ID Width Length Bearing (true) Bearing (mag) Surface Threshold Offset Overrun Length
11 148 ft / 45 m 11,457 ft / 3,492 m 115.99° 111.73° Asphalt 0 ft / 0 m 0 ft / 0 m
16 148 ft / 45 m 11,811 ft / 3,600 m 164.23° 159.97° Asphalt 0 ft / 0 m 33 ft / 10 m
29 148 ft / 45 m 11,457 ft / 3,492 m 296.03° 291.77° Asphalt 0 ft / 0 m 0 ft / 0 m
34 148 ft / 45 m 11,811 ft / 3,600 m 344.24° 339.98° Asphalt 0 ft / 0 m 0 ft / 0 m

LOWK

Details ICAO LOWK (KLU)
Name Klagenfurt Woerthersee
Region Austria
Timezone Europe/Vienna (UTC+1.0)
Stats Elevation 1,470 ft / 448 m (AMSL)
Location 46.642851° 14.331169°
Runways 2
Magnetic Variation 3.659° E

METAR

LOWK 110020Z AUTO 30003KT 240V320 6000 -SN FEW005 SCT026 BKN036 M02/M03 Q1000

Decode

TAF

TAF LOWK 102315Z 1100/1124 VRB02KT 6000 -SN SCT030 OVC050 TX07/1116Z TNM01/1100Z BECMG 1101/1104 -FZRASN TEMPO 1102/1106 3000 FZRASN BKN012 OVC030 BECMG 1106/1108 -RA FEW005 SCT010 OVC035 TEMPO 1106/1121 4000 RA FEW003 BKN006 OVC020

Decode

Destination Runways

ID Width Length Bearing (true) Bearing (mag) Surface Threshold Offset Overrun Length
10L 148 ft / 45 m 8,903 ft / 2,714 m 106.32° 102.66° Concrete 656 ft / 200 m 0 ft / 0 m
10R 89 ft / 27 m 2,329 ft / 710 m 106.42° 102.76° Grass 197 ft / 60 m 0 ft / 0 m
28L 89 ft / 27 m 2,329 ft / 710 m 286.43° 282.77° Grass 197 ft / 60 m 0 ft / 0 m
28R 148 ft / 45 m 8,903 ft / 2,714 m 286.34° 282.68° Concrete 0 ft / 0 m 0 ft / 0 m

Approach Navaids

Runway Type Ident Frequency Range Bearing (true) Bearing (mag) Slope Elevation
28R Localiser OEK 110.10 MHz 18 nm / 33 km 286.32° 282.66° - 1,470 ft / 448 m (AMSL)
28R Glidescope OEK 110.10 MHz 10 nm / 19 km 286.33° 282.67° 3.00° 1,479 ft / 451 m (AMSL)
28R DME OEK 110.10 MHz 18 nm / 33 km - - - 1,479 ft / 451 m (AMSL)

Popular Alternatives